Time;durP1;ratioP1;P1;durP2;ratioP2;P2;SDS_P1;SDS_P2;PMS_P1;PMS_P2;Temp;Humidity;BMP_temperature;BMP_pressure;BME280_temperature;BME280_humidity;BME280_pressure;Samples;Min_cycle;Max_cycle;Signal;HPM_P1;HPM_P2
2021/12/06 00:01:43;;;;;;;11.73;8.27;;;;;;;7.37;66.30;101082.91;5060126;28;20041;-62
2021/12/06 00:04:17;;;;;;;10.50;8.05;;;;;;;7.37;66.59;101090.94;5066660;28;20400;-61
2021/12/06 00:06:49;;;;;;;14.88;8.43;;;;;;;7.37;66.52;101090.94;5069467;28;20146;-61
2021/12/06 00:09:20;;;;;;;11.23;7.93;;;;;;;7.34;66.61;101083.28;5081231;28;20048;-61
2021/12/06 00:11:50;;;;;;;10.57;8.02;;;;;;;7.34;66.43;101093.16;5071475;28;20040;-61
2021/12/06 00:14:19;;;;;;;17.10;8.60;;;;;;;7.33;66.31;101094.19;5070496;28;20117;-63
2021/12/06 00:16:50;;;;;;;13.38;8.65;;;;;;;7.31;66.38;101097.06;5070750;28;20073;-61
2021/12/06 00:19:19;;;;;;;17.90;8.82;;;;;;;7.30;66.39;101103.41;5067954;28;20135;-61
2021/12/06 00:21:47;;;;;;;11.07;7.75;;;;;;;7.29;66.52;101107.13;5068889;28;20047;-61
2021/12/06 00:24:15;;;;;;;13.15;8.77;;;;;;;7.27;66.90;101102.97;5066252;28;20053;-61
2021/12/06 00:26:42;;;;;;;12.27;8.43;;;;;;;7.25;66.36;101110.38;5065819;28;20080;-61
2021/12/06 00:29:10;;;;;;;11.50;7.97;;;;;;;7.26;67.06;101115.53;5066031;28;20470;-61
2021/12/06 00:31:39;;;;;;;14.20;9.85;;;;;;;7.25;66.98;101121.88;5071667;28;20045;-61
2021/12/06 00:34:13;;;;;;;18.58;8.88;;;;;;;7.26;66.56;101122.72;5079143;28;20045;-61
2021/12/06 00:36:52;;;;;;;12.63;8.77;;;;;;;7.26;66.77;101112.84;5072929;28;20245;-61
2021/12/06 00:39:22;;;;;;;18.23;9.77;;;;;;;7.26;66.96;101125.38;5063180;28;20056;-61
2021/12/06 00:41:51;;;;;;;15.25;9.60;;;;;;;7.25;66.85;101129.06;5077503;28;20070;-61
2021/12/06 00:44:18;;;;;;;12.20;8.30;;;;;;;7.24;66.63;101140.78;5080497;28;20040;-61
2021/12/06 00:46:46;;;;;;;13.75;8.43;;;;;;;7.22;66.93;101143.66;5073600;28;20055;-61
2021/12/06 00:49:14;;;;;;;16.15;9.65;;;;;;;7.22;66.67;101146.34;5070848;28;20053;-62
2021/12/06 00:51:43;;;;;;;11.52;8.48;;;;;;;7.21;67.04;101142.00;5065389;28;20044;-61
2021/12/06 00:54:11;;;;;;;13.27;8.75;;;;;;;7.20;66.79;101156.38;5079456;28;20084;-61
2021/12/06 00:56:40;;;;;;;15.35;8.75;;;;;;;7.18;67.14;101147.72;5070459;28;20044;-61
2021/12/06 00:59:07;;;;;;;14.93;9.15;;;;;;;7.23;67.04;101153.34;5069976;28;20078;-61
2021/12/06 01:01:36;;;;;;;14.60;9.50;;;;;;;7.21;67.11;101163.38;5070477;28;20060;-61
2021/12/06 01:04:05;;;;;;;12.88;8.93;;;;;;;7.23;67.17;101164.03;5077454;28;20053;-62
2021/12/06 01:06:33;;;;;;;16.48;9.80;;;;;;;7.22;66.66;101174.91;5074591;28;20150;-62
2021/12/06 01:09:02;;;;;;;14.00;9.82;;;;;;;7.23;66.79;101179.22;5069943;28;20084;-61
2021/12/06 01:11:29;;;;;;;13.30;8.73;;;;;;;7.22;66.97;101178.41;5064315;28;20068;-61
2021/12/06 01:13:57;;;;;;;15.35;9.15;;;;;;;7.18;67.18;101185.97;5072208;28;20040;-60
2021/12/06 01:16:25;;;;;;;16.15;10.05;;;;;;;7.17;67.01;101183.50;5065655;28;20074;-61
2021/12/06 01:18:53;;;;;;;13.02;9.10;;;;;;;7.19;66.88;101184.13;5068839;28;20060;-61
2021/12/06 01:21:27;;;;;;;15.82;10.02;;;;;;;7.17;66.93;101178.97;5064368;28;20049;-61
2021/12/06 01:23:58;;;;;;;12.73;9.98;;;;;;;7.17;66.97;101180.81;5079259;28;20426;-62
2021/12/06 01:26:44;;;;;;;15.35;9.32;;;;;;;7.16;67.17;101173.81;5071070;28;20048;-61
2021/12/06 01:29:42;;;;;;;13.63;9.95;;;;;;;7.14;67.10;101182.03;5061391;28;20072;-61
2021/12/06 01:32:19;;;;;;;14.10;8.55;;;;;;;7.14;67.27;101187.38;5065004;28;20080;-61
2021/12/06 01:40:21;;;;;;;13.70;9.45;;;;;;;7.17;67.15;101199.53;5065050;28;20056;-61
2021/12/06 01:42:50;;;;;;;16.35;10.10;;;;;;;7.16;67.30;101208.56;5068579;28;20398;-61
2021/12/06 01:45:18;;;;;;;14.85;9.95;;;;;;;7.15;67.49;101199.72;5065276;28;20065;-61
2021/12/06 01:47:46;;;;;;;13.90;10.25;;;;;;;7.17;67.23;101212.91;5067296;28;20395;-61
2021/12/06 01:50:18;;;;;;;18.67;9.75;;;;;;;7.15;67.22;101215.75;5074026;28;20048;-61
2021/12/06 01:52:48;;;;;;;14.68;10.07;;;;;;;7.15;67.16;101214.94;5066553;28;20045;-62
2021/12/06 01:55:21;;;;;;;12.43;9.80;;;;;;;7.16;67.27;101219.25;5067261;28;20049;-61
2021/12/06 01:57:50;;;;;;;18.63;10.63;;;;;;;7.11;67.41;101211.81;5070936;28;20052;-61
2021/12/06 02:00:22;;;;;;;12.18;9.50;;;;;;;7.14;67.40;101215.94;5064019;28;20049;-61
2021/12/06 02:02:50;;;;;;;13.02;9.88;;;;;;;7.13;67.44;101225.00;5054723;28;20064;-61
2021/12/06 02:05:18;;;;;;;14.55;10.05;;;;;;;7.11;67.40;101219.84;5071205;28;20087;-61
2021/12/06 02:07:46;;;;;;;14.60;10.40;;;;;;;7.11;67.36;101222.50;5070279;28;20044;-61
2021/12/06 02:10:15;;;;;;;14.98;10.80;;;;;;;7.11;67.50;101221.69;5078247;28;20045;-61
2021/12/06 02:12:45;;;;;;;13.43;10.65;;;;;;;7.09;67.68;101221.03;5067613;28;20055;-62
2021/12/06 02:15:35;;;;;;;15.68;10.43;;;;;;;7.09;67.23;101218.38;5073148;28;20459;-62
2021/12/06 02:18:07;;;;;;;13.77;9.88;;;;;;;7.10;67.73;101225.38;5072760;28;20055;-61
2021/12/06 02:20:43;;;;;;;13.15;9.45;;;;;;;7.08;67.68;101219.38;5071149;28;20068;-61
2021/12/06 02:23:13;;;;;;;14.55;9.77;;;;;;;7.07;67.81;101229.25;5073325;28;20051;-61
2021/12/06 02:25:41;;;;;;;12.70;9.73;;;;;;;7.08;67.81;101235.41;5064234;28;20056;-61
2021/12/06 02:28:09;;;;;;;14.70;10.80;;;;;;;7.07;67.57;101229.25;5073606;28;20118;-61
2021/12/06 02:30:36;;;;;;;13.50;10.20;;;;;;;7.08;67.89;101230.91;5056075;28;20075;-61
2021/12/06 02:33:04;;;;;;;14.07;9.73;;;;;;;7.06;67.80;101232.94;5070370;28;20041;-61
2021/12/06 02:35:32;;;;;;;15.40;10.43;;;;;;;7.06;67.68;101240.97;5063705;28;20517;-61
2021/12/06 02:38:02;;;;;;;14.60;9.80;;;;;;;7.06;67.82;101238.28;5065994;28;20390;-61
2021/12/06 02:40:34;;;;;;;15.88;10.10;;;;;;;7.07;67.66;101239.94;5062883;28;20049;-61
2021/12/06 02:43:06;;;;;;;16.27;10.50;;;;;;;7.08;67.85;101256.81;5076939;28;20131;-61
2021/12/06 02:45:36;;;;;;;13.80;9.45;;;;;;;7.05;67.73;101252.66;5069336;28;20049;-61
2021/12/06 02:48:07;;;;;;;15.43;9.85;;;;;;;7.05;67.84;101260.69;5065133;28;20053;-61
2021/12/06 02:50:38;;;;;;;13.38;9.50;;;;;;;7.04;68.08;101264.38;5065920;28;20048;-61
2021/12/06 02:53:06;;;;;;;13.77;10.13;;;;;;;7.04;67.83;101267.03;5071330;28;20244;-61
2021/12/06 02:55:37;;;;;;;13.50;9.57;;;;;;;7.03;67.96;101268.06;5068020;28;20052;-61
2021/12/06 02:58:14;;;;;;;14.70;10.02;;;;;;;7.04;67.74;101269.72;5073621;28;20141;-61
2021/12/06 03:00:44;;;;;;;17.10;10.10;;;;;;;7.03;68.05;101261.88;5070409;28;20055;-61
2021/12/06 03:03:13;;;;;;;14.57;10.13;;;;;;;7.01;68.23;101270.09;5079327;28;20100;-61
2021/12/06 03:05:41;;;;;;;13.52;9.75;;;;;;;7.02;68.28;101274.41;5070875;28;20045;-61
2021/12/06 03:08:09;;;;;;;15.73;10.48;;;;;;;7.02;68.09;101265.56;5063331;28;20045;-61
2021/12/06 03:10:39;;;;;;;13.43;9.80;;;;;;;7.02;67.91;101269.06;5072945;28;20044;-61
2021/12/06 03:13:07;;;;;;;15.52;9.70;;;;;;;7.04;67.91;101271.56;5066410;28;20096;-61
2021/12/06 03:15:35;;;;;;;13.45;10.23;;;;;;;7.02;67.63;101270.91;5073751;28;20048;-61
2021/12/06 03:18:03;;;;;;;15.65;11.00;;;;;;;7.00;68.15;101276.44;5068454;28;20067;-61
2021/12/06 03:20:31;;;;;;;13.70;10.55;;;;;;;7.01;67.80;101272.75;5068077;28;20044;-61
2021/12/06 03:22:59;;;;;;;14.13;10.10;;;;;;;7.03;67.86;101268.06;5063302;28;20068;-61
2021/12/06 03:25:26;;;;;;;14.13;10.35;;;;;;;7.01;67.95;101272.75;5074928;28;20071;-61
2021/12/06 03:28:00;;;;;;;16.50;10.68;;;;;;;7.01;67.86;101277.28;5052788;28;20045;-61
2021/12/06 03:30:27;;;;;;;14.27;10.68;;;;;;;7.02;68.33;101273.59;5065277;28;20068;-60
2021/12/06 03:32:55;;;;;;;15.23;10.95;;;;;;;7.02;67.93;101270.91;5071081;28;20049;-61
2021/12/06 03:35:23;;;;;;;15.18;11.18;;;;;;;7.01;68.05;101272.75;5070630;28;20076;-61
2021/12/06 03:37:51;;;;;;;14.80;11.55;;;;;;;7.01;67.61;101275.44;5068783;28;20088;-60
2021/12/06 03:40:19;;;;;;;15.90;10.52;;;;;;;6.99;68.25;101280.13;5066963;28;20091;-59
2021/12/06 03:42:47;;;;;;;15.05;10.30;;;;;;;6.98;68.17;101281.16;5065546;28;20085;-61
2021/12/06 03:45:17;;;;;;;14.70;10.82;;;;;;;6.99;68.19;101287.31;5078157;28;20052;-61
2021/12/06 03:47:45;;;;;;;15.32;11.20;;;;;;;6.98;68.00;101286.50;5068017;28;20049;-61
2021/12/06 03:50:13;;;;;;;15.80;11.27;;;;;;;6.98;68.41;101283.81;5072862;28;20059;-61
2021/12/06 03:52:41;;;;;;;16.05;10.77;;;;;;;6.99;68.11;101292.66;5067237;28;20076;-61
2021/12/06 03:55:12;;;;;;;15.13;11.38;;;;;;;6.99;67.82;101292.66;5078649;28;20090;-58
2021/12/06 03:57:40;;;;;;;14.63;10.93;;;;;;;6.97;68.06;101287.50;5073613;28;20041;-61
2021/12/06 04:00:10;;;;;;;16.80;10.43;;;;;;;6.98;68.10;101288.34;5066981;28;20048;-61
2021/12/06 04:02:40;;;;;;;14.55;10.05;;;;;;;6.91;68.03;101277.59;5078665;28;20056;-61
2021/12/06 04:05:09;;;;;;;14.73;10.85;;;;;;;6.97;67.83;101286.69;5070320;28;20104;-61
2021/12/06 04:07:37;;;;;;;14.38;10.43;;;;;;;6.96;68.08;101291.19;5076863;28;20382;-61
2021/12/06 04:10:07;;;;;;;16.08;11.38;;;;;;;6.97;68.11;101292.84;5073295;28;20058;-60
2021/12/06 04:12:36;;;;;;;14.18;11.05;;;;;;;6.96;68.00;101290.38;5071802;28;20080;-51
2021/12/06 04:15:04;;;;;;;14.07;10.48;;;;;;;6.98;68.15;101296.34;5068452;28;20048;-61
2021/12/06 04:17:32;;;;;;;14.80;10.48;;;;;;;6.97;67.64;101306.22;5071544;28;20044;-59
2021/12/06 04:20:02;;;;;;;15.52;11.15;;;;;;;6.97;68.08;101297.38;5073308;28;20044;-61
2021/12/06 04:22:30;;;;;;;14.68;10.90;;;;;;;6.97;67.79;101294.69;5066352;28;20049;-61
2021/12/06 04:25:00;;;;;;;15.20;10.50;;;;;;;6.97;68.23;101295.53;5070282;28;20075;-61
2021/12/06 04:27:29;;;;;;;14.23;9.93;;;;;;;6.96;67.75;101298.38;5075811;28;20095;-61
2021/12/06 04:29:57;;;;;;;14.93;11.27;;;;;;;6.94;68.01;101292.41;5074533;28;20044;-61
2021/12/06 04:32:25;;;;;;;13.57;9.90;;;;;;;6.92;68.47;101294.47;5076762;28;20079;-61
2021/12/06 04:34:53;;;;;;;16.67;10.80;;;;;;;6.93;68.31;101293.44;5069069;28;20045;-61
2021/12/06 04:37:23;;;;;;;14.50;10.57;;;;;;;6.93;68.04;101290.78;5066269;28;20045;-61
2021/12/06 04:39:51;;;;;;;20.98;12.75;;;;;;;6.92;68.27;101295.28;5066377;28;20065;-60
2021/12/06 04:42:20;;;;;;;17.67;11.48;;;;;;;6.92;68.15;101303.31;5074169;28;20141;-59
2021/12/06 04:44:48;;;;;;;15.48;11.20;;;;;;;6.90;68.26;101304.50;5066173;28;20522;-61
2021/12/06 04:47:16;;;;;;;14.98;11.07;;;;;;;6.88;68.29;101304.69;5080127;28;20072;-61
2021/12/06 04:49:44;;;;;;;16.05;10.23;;;;;;;6.88;68.35;101301.19;5072556;28;20148;-61
2021/12/06 04:52:13;;;;;;;20.95;10.98;;;;;;;6.89;68.41;101313.53;5066115;28;20076;-61
2021/12/06 04:54:46;;;;;;;14.65;10.15;;;;;;;6.87;67.96;101312.91;5066529;28;20133;-61
2021/12/06 04:57:21;;;;;;;16.77;10.27;;;;;;;6.85;67.98;101316.59;5067780;28;20049;-61
2021/12/06 04:59:52;;;;;;;14.23;10.10;;;;;;;6.85;67.96;101318.44;5067253;28;20063;-61
2021/12/06 05:02:25;;;;;;;15.68;10.30;;;;;;;6.84;67.85;101330.13;5065444;28;20068;-61
2021/12/06 05:04:58;;;;;;;14.20;9.73;;;;;;;6.84;67.54;101327.47;5073001;28;20171;-61
2021/12/06 05:07:29;;;;;;;15.15;10.27;;;;;;;6.82;67.67;101324.97;5069071;28;20049;-61
2021/12/06 05:09:58;;;;;;;13.80;10.23;;;;;;;6.81;67.56;101328.66;5075089;28;20051;-61
2021/12/06 05:12:29;;;;;;;15.05;10.88;;;;;;;6.81;67.71;101336.66;5076559;28;20045;-60
2021/12/06 05:14:58;;;;;;;14.18;10.27;;;;;;;6.80;67.64;101326.16;5065450;28;20072;-60
2021/12/06 05:17:26;;;;;;;13.45;10.68;;;;;;;6.79;67.38;101328.00;5071182;28;20441;-61
2021/12/06 05:19:54;;;;;;;14.15;10.43;;;;;;;6.77;67.67;101335.38;5074119;28;20059;-61
2021/12/06 05:22:24;;;;;;;13.48;10.00;;;;;;;6.76;67.63;101335.56;5065108;28;20049;-61
2021/12/06 05:24:52;;;;;;;15.25;10.88;;;;;;;6.72;68.03;101339.63;5064944;28;20044;-60
2021/12/06 05:27:27;;;;;;;14.65;10.13;;;;;;;6.76;67.17;101346.25;5067041;28;20406;-55
2021/12/06 05:29:58;;;;;;;15.10;10.50;;;;;;;6.75;67.23;101344.59;5064877;28;20053;-61
2021/12/06 05:32:28;;;;;;;14.30;10.10;;;;;;;6.74;67.39;101359.78;5058210;28;20059;-59
2021/12/06 05:35:03;;;;;;;15.35;10.32;;;;;;;6.74;67.30;101350.94;5062881;28;20045;-61
2021/12/06 05:37:32;;;;;;;15.15;10.48;;;;;;;6.73;67.07;101344.78;5075232;28;20103;-60
2021/12/06 05:40:00;;;;;;;15.93;11.25;;;;;;;6.72;67.01;101351.13;5078205;28;20064;-61
2021/12/06 05:42:29;;;;;;;16.17;11.20;;;;;;;6.73;67.05;101343.94;5068299;28;20052;-61
2021/12/06 05:44:57;;;;;;;15.98;11.32;;;;;;;6.71;67.44;101343.31;5076638;28;20041;-61
2021/12/06 05:47:25;;;;;;;14.77;11.15;;;;;;;6.71;67.60;101346.81;5069298;28;20076;-61
2021/12/06 05:49:53;;;;;;;15.35;11.05;;;;;;;6.67;67.61;101337.50;5076131;28;20048;-61
2021/12/06 05:52:21;;;;;;;15.13;10.68;;;;;;;6.65;66.86;101342.19;5068933;28;20051;-61
2021/12/06 05:54:49;;;;;;;13.40;10.27;;;;;;;6.66;67.21;101340.34;5066674;28;20060;-61
2021/12/06 05:57:18;;;;;;;12.80;9.85;;;;;;;6.64;67.31;101350.41;5058549;28;20044;-61
2021/12/06 05:59:47;;;;;;;14.70;10.45;;;;;;;6.62;67.21;101347.91;5064212;28;20045;-61
2021/12/06 06:02:16;;;;;;;15.00;10.15;;;;;;;6.62;67.26;101347.91;5074826;28;20139;-61
2021/12/06 06:04:45;;;;;;;13.23;9.57;;;;;;;6.62;67.34;101353.25;5073263;28;20036;-61
2021/12/06 06:07:13;;;;;;;14.35;10.45;;;;;;;6.60;67.32;101360.63;5069744;28;20056;-60
2021/12/06 06:09:41;;;;;;;13.77;9.82;;;;;;;6.60;67.22;101357.13;5064256;28;20158;-61
2021/12/06 06:12:09;;;;;;;15.00;10.80;;;;;;;6.60;67.33;101370.47;5074475;28;20063;-61
2021/12/06 06:14:37;;;;;;;13.25;10.52;;;;;;;6.59;67.10;101379.50;5074220;28;20102;-61
2021/12/06 06:17:13;;;;;;;12.10;9.73;;;;;;;6.58;67.30;101376.00;5066013;28;20186;-61
2021/12/06 06:19:44;;;;;;;14.77;10.82;;;;;;;6.57;67.19;101377.00;5073755;28;20080;-61
2021/12/06 06:22:12;;;;;;;13.65;10.65;;;;;;;6.56;67.35;101385.19;5066437;28;20045;-61
2021/12/06 06:24:41;;;;;;;11.43;9.00;;;;;;;6.56;67.60;101385.19;5065939;28;20159;-61
2021/12/06 06:27:08;;;;;;;13.02;10.55;;;;;;;6.56;67.32;101387.88;5064508;28;20048;-61
2021/12/06 06:29:37;;;;;;;12.20;9.93;;;;;;;6.55;67.30;101388.88;5076834;28;20057;-61
2021/12/06 06:32:07;;;;;;;12.52;9.88;;;;;;;6.55;67.48;101384.38;5077353;28;20185;-61
2021/12/06 06:34:36;;;;;;;12.43;10.07;;;;;;;6.53;67.47;101387.22;5075690;28;20064;-59
2021/12/06 06:37:04;;;;;;;13.45;10.05;;;;;;;6.52;67.60;101390.91;5067663;28;20098;-61
2021/12/06 06:39:32;;;;;;;13.57;10.02;;;;;;;6.52;67.75;101390.06;5068468;28;20049;-61
2021/12/06 06:42:00;;;;;;;14.25;10.65;;;;;;;6.51;67.72;101388.41;5062237;28;20068;-61
2021/12/06 06:44:28;;;;;;;14.10;10.63;;;;;;;6.51;67.49;101386.56;5062747;28;20060;-61
2021/12/06 06:46:56;;;;;;;14.30;10.85;;;;;;;6.51;67.65;101381.22;5069901;28;20049;-61
2021/12/06 06:49:25;;;;;;;13.82;10.88;;;;;;;6.51;67.65;101385.75;5076485;28;20056;-61
2021/12/06 06:51:53;;;;;;;12.60;10.23;;;;;;;6.51;67.79;101388.41;5071387;28;20048;-61
2021/12/06 06:54:21;;;;;;;12.75;9.88;;;;;;;6.50;67.62;101382.25;5070363;28;20139;-61
2021/12/06 06:56:48;;;;;;;12.98;10.32;;;;;;;6.50;67.62;101381.41;5062597;28;20084;-61
2021/12/06 06:59:16;;;;;;;14.73;10.93;;;;;;;6.49;67.87;101396.59;5071462;28;20044;-61
2021/12/06 07:01:45;;;;;;;13.18;10.02;;;;;;;6.48;67.72;101392.28;5062321;28;20045;-61
2021/12/06 07:04:13;;;;;;;13.55;9.75;;;;;;;6.50;67.74;101397.44;5071657;28;20063;-61
2021/12/06 07:06:44;;;;;;;12.10;9.55;;;;;;;6.49;67.70;101399.28;5068319;28;20070;-61
2021/12/06 07:09:12;;;;;;;13.77;10.50;;;;;;;6.49;67.81;101393.94;5071361;28;20045;-61
2021/12/06 07:11:44;;;;;;;13.55;10.40;;;;;;;6.50;67.88;101392.91;5061814;28;20089;-61
2021/12/06 07:14:13;;;;;;;13.68;10.48;;;;;;;6.51;67.79;101396.41;5067239;28;20079;-63
2021/12/06 07:16:42;;;;;;;13.18;10.88;;;;;;;6.52;67.73;101400.75;5062148;28;20112;-60
2021/12/06 07:19:09;;;;;;;12.80;9.80;;;;;;;6.51;67.64;101396.41;5069415;28;20049;-60
2021/12/06 07:21:57;;;;;;;12.93;10.38;;;;;;;6.50;67.60;101394.75;5066796;28;20049;-62
2021/12/06 07:24:25;;;;;;;16.38;10.07;;;;;;;6.51;67.94;101407.94;5066814;28;20045;-64
2021/12/06 07:26:54;;;;;;;14.25;10.73;;;;;;;6.51;67.92;101399.91;5057772;28;20056;-62
2021/12/06 07:29:22;;;;;;;13.10;10.00;;;;;;;6.52;67.44;101403.41;5061909;28;20044;-62
2021/12/06 07:31:50;;;;;;;12.98;9.93;;;;;;;6.52;67.72;101403.41;5063470;28;20049;-63
2021/12/06 07:34:19;;;;;;;14.35;10.57;;;;;;;6.49;67.58;101395.78;5063253;28;20084;-62
2021/12/06 07:36:47;;;;;;;14.48;11.15;;;;;;;6.55;67.65;101412.91;5053577;28;20085;-63
2021/12/06 07:39:16;;;;;;;12.63;9.73;;;;;;;6.53;67.75;101419.25;5057125;28;20060;-64
2021/12/06 07:41:50;;;;;;;14.98;11.52;;;;;;;6.53;67.37;101419.25;5055285;28;20053;-63
2021/12/06 07:44:18;;;;;;;14.95;10.20;;;;;;;6.52;67.83;101422.13;5066553;28;20045;-61
2021/12/06 07:46:46;;;;;;;15.75;11.95;;;;;;;6.53;67.71;101419.25;5062213;28;20078;-64
2021/12/06 07:49:14;;;;;;;16.58;11.07;;;;;;;6.53;67.85;101421.09;5065795;28;20052;-59
2021/12/06 07:51:42;;;;;;;14.02;10.40;;;;;;;6.51;67.77;101410.59;5060572;28;20080;-61
2021/12/06 07:54:10;;;;;;;16.75;12.52;;;;;;;6.51;67.90;101412.44;5083168;28;20461;-61
2021/12/06 07:56:39;;;;;;;16.48;11.57;;;;;;;6.52;68.08;101403.41;5077703;28;20112;-61
2021/12/06 07:59:07;;;;;;;16.83;12.55;;;;;;;6.50;67.94;101400.09;5066750;28;20045;-60
2021/12/06 08:01:35;;;;;;;18.05;12.70;;;;;;;6.50;67.88;101408.94;5068868;28;20067;-60
2021/12/06 08:04:04;;;;;;;17.27;12.80;;;;;;;6.50;67.95;101400.94;5073256;28;20140;-60
2021/12/06 08:06:33;;;;;;;17.88;13.13;;;;;;;6.49;67.97;101393.94;4707989;28;10000556;-59
2021/12/06 08:09:00;;;;;;;21.15;13.30;;;;;;;6.50;68.10;101398.25;5063187;28;20076;-57
2021/12/06 08:11:28;;;;;;;19.27;13.77;;;;;;;6.51;67.99;101393.75;5073810;28;20048;-59
2021/12/06 08:13:57;;;;;;;20.90;14.90;;;;;;;6.51;67.92;101410.59;5062287;28;20049;-59
2021/12/06 08:16:30;;;;;;;21.00;13.93;;;;;;;6.51;68.10;101393.75;5056634;28;20076;-59
2021/12/06 08:18:59;;;;;;;20.38;14.65;;;;;;;6.50;68.11;101394.75;5058927;28;20057;-54
2021/12/06 08:21:28;;;;;;;22.73;15.48;;;;;;;6.51;68.32;101401.75;5047326;28;20429;-55
2021/12/06 08:23:58;;;;;;;20.00;14.43;;;;;;;6.50;68.24;101397.44;5055170;28;20072;-60
2021/12/06 08:26:32;;;;;;;21.38;14.93;;;;;;;6.51;67.90;101404.44;5048159;28;20693;-57
2021/12/06 08:29:05;;;;;;;20.80;14.63;;;;;;;6.49;68.21;101407.28;5060049;28;20045;-59
2021/12/06 08:31:33;;;;;;;23.88;15.50;;;;;;;6.51;68.22;101402.59;5056549;28;20053;-60
2021/12/06 08:34:01;;;;;;;22.63;15.48;;;;;;;6.50;68.18;101397.44;5062055;28;20072;-56
2021/12/06 08:36:29;;;;;;;23.13;15.80;;;;;;;6.50;68.03;101397.44;5066088;28;20092;-58
2021/12/06 08:38:58;;;;;;;22.02;16.02;;;;;;;6.48;68.31;101402.97;5062102;28;20052;-59
2021/12/06 08:41:29;;;;;;;25.42;16.38;;;;;;;6.48;68.32;101408.28;5059361;28;20681;-58
2021/12/06 08:43:58;;;;;;;22.13;16.08;;;;;;;6.46;68.76;101415.66;5064260;28;20510;-58
2021/12/06 08:46:31;;;;;;;22.08;15.52;;;;;;;6.48;68.44;101424.31;5047061;28;20597;-58
2021/12/06 08:49:02;;;;;;;23.67;15.68;;;;;;;6.59;68.12;101427.56;5062848;28;20049;-60
2021/12/06 08:51:33;;;;;;;26.08;16.83;;;;;;;6.69;67.80;101431.63;5064976;28;20048;-60
2021/12/06 08:54:02;;;;;;;23.05;15.68;;;;;;;6.87;67.02;101438.47;5063275;28;20045;-57
2021/12/06 08:56:31;;;;;;;22.48;15.75;;;;;;;7.03;66.36;101439.09;5051815;28;20118;-59
2021/12/06 08:58:59;;;;;;;24.67;15.68;;;;;;;7.19;66.14;101443.41;5063519;28;20068;-59
2021/12/06 09:01:29;;;;;;;22.20;15.75;;;;;;;7.35;65.33;101442.41;5063855;28;20071;-56
2021/12/06 09:04:17;;;;;;;24.45;15.50;;;;;;;7.53;64.60;101434.81;5053537;28;20562;-59
2021/12/06 09:06:50;;;;;;;23.75;14.55;;;;;;;7.65;64.28;101435.16;5060743;28;20441;-59
2021/12/06 09:09:18;;;;;;;22.40;15.05;;;;;;;7.82;63.86;101442.75;5063765;28;20110;-59
2021/12/06 09:11:46;;;;;;;21.17;15.18;;;;;;;7.92;63.56;101446.97;5058819;28;20049;-59
2021/12/06 09:14:17;;;;;;;19.77;14.18;;;;;;;8.05;63.06;101445.28;5053199;28;20044;-59
2021/12/06 09:16:47;;;;;;;21.92;14.50;;;;;;;8.06;62.91;101436.22;5065082;28;20049;-59
2021/12/06 09:19:17;;;;;;;22.90;13.90;;;;;;;8.26;62.81;101451.66;5065571;28;20040;-58
2021/12/06 09:21:46;;;;;;;21.05;14.07;;;;;;;8.40;62.32;101448.94;5057799;28;20082;-53
2021/12/06 09:24:16;;;;;;;21.75;14.95;;;;;;;8.48;62.36;101445.28;5062556;28;20052;-59
2021/12/06 09:26:46;;;;;;;24.45;14.98;;;;;;;8.56;61.59;101453.19;5058060;28;20049;-59
2021/12/06 09:29:15;;;;;;;20.23;14.15;;;;;;;8.63;61.51;101446.03;5063332;28;20161;-59
2021/12/06 09:31:43;;;;;;;20.65;14.10;;;;;;;8.68;61.23;101443.56;5060019;28;20051;-57
2021/12/06 09:34:13;;;;;;;22.63;14.52;;;;;;;8.64;60.92;101428.94;5060099;28;20056;-55
2021/12/06 09:36:41;;;;;;;23.13;14.63;;;;;;;8.74;60.32;101437.44;5059908;28;20091;-59
2021/12/06 09:39:09;;;;;;;22.00;13.23;;;;;;;8.78;60.87;101438.69;5061501;28;20080;-56
2021/12/06 09:41:38;;;;;;;20.08;14.35;;;;;;;8.80;60.56;101447.38;5054147;28;20060;-59
2021/12/06 09:44:09;;;;;;;19.45;13.38;;;;;;;8.74;60.83;101444.63;5065380;28;20151;-59
2021/12/06 09:46:38;;;;;;;20.23;13.77;;;;;;;8.61;61.91;101449.94;5066977;28;20040;-56
2021/12/06 09:49:09;;;;;;;24.15;14.70;;;;;;;8.42;62.65;101454.09;5061071;28;20175;-59
2021/12/06 09:51:41;;;;;;;22.40;14.18;;;;;;;8.20;62.49;101452.41;5050993;28;20076;-59
2021/12/06 09:54:10;;;;;;;22.33;14.10;;;;;;;8.03;62.97;101454.50;5053539;28;20045;-56
2021/12/06 09:56:41;;;;;;;22.52;14.10;;;;;;;7.88;63.91;101451.06;5054101;28;20108;-59
2021/12/06 09:59:11;;;;;;;25.23;15.88;;;;;;;7.75;64.46;101457.09;5067870;28;20079;-59
2021/12/06 10:01:43;;;;;;;24.73;14.60;;;;;;;7.67;65.02;101460.69;5054399;28;20053;-60
2021/12/06 10:04:14;;;;;;;27.88;16.45;;;;;;;7.62;64.57;101459.59;5054604;28;20105;-57
2021/12/06 10:06:45;;;;;;;23.98;15.18;;;;;;;7.73;64.71;101459.13;5059362;28;20469;-60
2021/12/06 10:09:15;;;;;;;22.70;14.27;;;;;;;7.83;64.43;101448.94;5051918;28;20068;-60
2021/12/06 10:11:44;;;;;;;26.45;16.10;;;;;;;7.94;63.78;101444.94;5055333;28;20103;-59
2021/12/06 10:14:13;;;;;;;23.48;13.88;;;;;;;8.10;63.99;101439.34;5066232;28;20186;-59
2021/12/06 10:16:41;;;;;;;25.15;14.40;;;;;;;8.10;63.34;101415.25;5064224;28;20048;-59
2021/12/06 10:19:10;;;;;;;27.55;15.20;;;;;;;8.37;62.91;101429.75;5057810;28;20049;-59
2021/12/06 10:21:39;;;;;;;28.05;15.32;;;;;;;8.44;62.11;101423.41;5063209;28;20360;-59
2021/12/06 10:24:12;;;;;;;22.70;13.90;;;;;;;8.42;61.82;101424.63;5062458;28;20045;-59
2021/12/06 10:26:40;;;;;;;22.35;13.55;;;;;;;8.25;63.03;101412.50;5053042;28;20099;-61
2021/12/06 10:29:11;;;;;;;24.02;14.20;;;;;;;8.10;63.86;101423.28;5068679;28;20102;-59
2021/12/06 10:31:44;;;;;;;26.33;14.35;;;;;;;7.91;63.71;101408.69;5060936;28;20056;-60
2021/12/06 10:34:15;;;;;;;23.25;14.07;;;;;;;7.77;64.01;101410.41;5057091;28;20119;-60
2021/12/06 10:36:43;;;;;;;21.02;13.30;;;;;;;7.73;64.34;101408.28;5061416;28;20063;-60
2021/12/06 10:39:12;;;;;;;22.65;14.02;;;;;;;7.83;64.39;101406.13;5055759;28;20052;-61
2021/12/06 10:41:41;;;;;;;21.65;13.35;;;;;;;7.95;63.60;101415.31;5070060;28;20113;-60
2021/12/06 10:44:12;;;;;;;22.35;14.70;;;;;;;8.08;63.30;101403.91;5061182;28;20070;-60
2021/12/06 10:46:43;;;;;;;22.77;14.48;;;;;;;8.23;62.44;101399.31;5058927;28;20124;-64
2021/12/06 10:49:15;;;;;;;23.33;15.45;;;;;;;8.33;62.02;101390.97;5055902;28;20381;-59
2021/12/06 10:51:43;;;;;;;19.90;13.15;;;;;;;8.32;61.88;101387.44;5055493;28;20045;-60
2021/12/06 10:54:20;;;;;;;20.83;13.15;;;;;;;8.24;63.01;101386.75;5059906;28;20041;-60
2021/12/06 10:56:52;;;;;;;19.75;12.35;;;;;;;8.09;63.33;101376.94;5058159;28;20053;-60
2021/12/06 10:59:23;;;;;;;19.90;12.85;;;;;;;7.95;63.84;101379.69;5061613;28;20041;-60
2021/12/06 11:01:54;;;;;;;21.77;13.30;;;;;;;7.83;64.23;101372.19;4367269;28;10000718;-64
2021/12/06 11:04:26;;;;;;;21.20;12.50;;;;;;;7.72;64.11;101356.63;5054310;28;20068;-58
2021/12/06 11:07:04;;;;;;;22.00;13.70;;;;;;;7.68;64.22;101354.53;4706599;28;10000140;-56
2021/12/06 11:09:38;;;;;;;20.17;12.20;;;;;;;7.64;65.05;101348.72;5057593;28;20117;-65
2021/12/06 11:12:08;;;;;;;18.02;11.93;;;;;;;7.63;65.00;101359.63;5065638;28;20053;-64
2021/12/06 11:14:38;;;;;;;20.15;12.50;;;;;;;7.60;65.04;101357.31;5062041;28;20060;-63
2021/12/06 11:17:09;;;;;;;18.33;11.80;;;;;;;7.53;65.21;101354.56;5053495;28;20122;-63
2021/12/06 11:19:38;;;;;;;20.05;11.90;;;;;;;7.46;65.59;101356.34;5063364;28;20421;-63
2021/12/06 11:22:08;;;;;;;16.90;10.95;;;;;;;7.42;65.08;101349.72;5066239;28;20421;-64
2021/12/06 11:24:40;;;;;;;16.75;10.80;;;;;;;7.40;65.76;101349.06;5066570;28;20094;-61
2021/12/06 11:27:10;;;;;;;16.85;11.70;;;;;;;7.34;65.64;101336.47;5061751;28;20174;-63
2021/12/06 11:29:42;;;;;;;18.33;11.70;;;;;;;7.33;65.77;101324.94;5060606;28;20456;-60
2021/12/06 11:32:15;;;;;;;15.73;10.52;;;;;;;7.38;66.16;101319.03;5045173;28;20056;-60
2021/12/06 11:34:46;;;;;;;17.23;11.05;;;;;;;7.38;65.31;101325.19;5045953;28;20055;-61
2021/12/06 11:37:17;;;;;;;17.10;11.05;;;;;;;7.31;65.93;101324.31;5060506;28;20053;-61